createdAt,value
2018-07-23T00:01:11.258Z,9.48
2018-07-23T00:03:39.578Z,9.60
2018-07-23T00:06:07.927Z,8.63
2018-07-23T00:08:36.267Z,10.05
2018-07-23T00:11:05.003Z,9.40
2018-07-23T00:13:33.321Z,9.37
2018-07-23T00:16:01.673Z,9.70
2018-07-23T00:18:30.024Z,9.87
2018-07-23T00:20:58.365Z,9.67
2018-07-23T00:23:26.689Z,10.70
2018-07-23T00:25:54.999Z,10.23
2018-07-23T00:28:23.379Z,9.60
2018-07-23T00:30:51.717Z,10.08
2018-07-23T00:33:20.084Z,9.10
2018-07-23T00:35:48.444Z,10.67
2018-07-23T00:38:16.783Z,10.10
2018-07-23T00:40:45.126Z,10.00
2018-07-23T00:43:13.471Z,10.57
2018-07-23T00:45:42.469Z,11.10
2018-07-23T00:48:10.827Z,10.80
2018-07-23T00:50:39.219Z,11.28
2018-07-23T00:53:07.580Z,11.48
2018-07-23T00:55:35.918Z,10.08
2018-07-23T00:58:04.309Z,10.72
2018-07-23T01:00:32.676Z,10.50
2018-07-23T01:03:06.912Z,10.58
2018-07-23T01:05:37.363Z,11.53
2018-07-23T01:08:06.111Z,10.80
2018-07-23T01:10:34.442Z,11.22
2018-07-23T01:13:02.753Z,10.45
2018-07-23T01:15:31.088Z,11.40
2018-07-23T01:17:59.409Z,11.35
2018-07-23T01:20:27.749Z,11.50
2018-07-23T01:22:56.089Z,11.33
2018-07-23T01:25:24.449Z,11.60
2018-07-23T01:27:52.798Z,11.40
2018-07-23T01:30:21.137Z,11.08
2018-07-23T01:32:49.440Z,11.43
2018-07-23T01:35:17.741Z,11.40
2018-07-23T01:37:46.099Z,11.47
2018-07-23T01:40:14.451Z,11.90
2018-07-23T01:42:42.900Z,11.28
2018-07-23T01:45:11.226Z,11.40
2018-07-23T01:47:39.590Z,12.07
2018-07-23T01:50:07.942Z,11.90
2018-07-23T01:52:36.409Z,11.55
2018-07-23T01:55:05.011Z,11.88
2018-07-23T01:57:33.377Z,12.18
2018-07-23T02:00:01.719Z,11.85
2018-07-23T02:02:30.054Z,11.90
2018-07-23T02:04:58.404Z,12.00
2018-07-23T02:07:26.792Z,11.80
2018-07-23T02:09:55.145Z,11.40
2018-07-23T02:12:23.487Z,12.17
2018-07-23T02:14:51.862Z,12.40
2018-07-23T02:17:20.192Z,12.43
2018-07-23T02:19:48.552Z,11.87
2018-07-23T02:22:16.874Z,12.30
2018-07-23T02:24:45.190Z,13.07
2018-07-23T02:27:13.534Z,12.73
2018-07-23T02:29:41.933Z,12.47
2018-07-23T02:32:10.459Z,12.70
2018-07-23T02:34:38.805Z,13.05
2018-07-23T02:37:07.620Z,12.73
2018-07-23T02:39:36.030Z,12.73
2018-07-23T02:42:04.395Z,12.80
2018-07-23T02:44:33.303Z,13.37
2018-07-23T02:47:01.809Z,13.05
2018-07-23T02:49:30.180Z,13.10
2018-07-23T02:51:58.506Z,13.28
2018-07-23T02:54:26.884Z,13.78
2018-07-23T02:56:55.243Z,13.48
2018-07-23T02:59:23.752Z,13.20
2018-07-23T03:01:52.065Z,13.60
2018-07-23T03:04:20.424Z,13.10
2018-07-23T03:06:48.741Z,12.80
2018-07-23T03:09:17.125Z,13.10
2018-07-23T03:11:45.470Z,12.18
2018-07-23T03:14:13.835Z,12.80
2018-07-23T03:16:42.173Z,12.80
2018-07-23T03:19:10.529Z,12.58
2018-07-23T03:21:38.878Z,12.85
2018-07-23T03:24:07.222Z,13.05
2018-07-23T03:26:35.558Z,12.50
2018-07-23T03:29:03.923Z,13.30
2018-07-23T03:31:32.234Z,13.50
2018-07-23T03:34:00.579Z,13.03
2018-07-23T03:36:28.907Z,12.37
2018-07-23T03:38:57.370Z,13.43
2018-07-23T03:41:25.727Z,12.40
2018-07-23T03:43:54.092Z,12.50
2018-07-23T03:46:22.411Z,12.85
2018-07-23T03:48:50.879Z,13.22
2018-07-23T03:51:19.228Z,12.70
2018-07-23T03:53:47.570Z,12.90
2018-07-23T03:56:15.892Z,12.28
2018-07-23T03:58:44.279Z,12.15
2018-07-23T04:01:12.599Z,12.90
2018-07-23T04:03:41.072Z,13.22
2018-07-23T04:06:09.400Z,12.43
2018-07-23T04:08:37.833Z,12.80
2018-07-23T04:11:06.315Z,12.93
2018-07-23T04:13:34.657Z,13.45
2018-07-23T04:16:03.041Z,11.97
2018-07-23T04:18:31.421Z,13.30
2018-07-23T04:20:59.718Z,12.15
2018-07-23T04:23:28.069Z,12.78
2018-07-23T04:25:56.423Z,12.60
2018-07-23T04:28:24.774Z,12.07
2018-07-23T04:30:53.101Z,12.10
2018-07-23T04:33:21.455Z,12.07
2018-07-23T04:35:49.827Z,10.80
2018-07-23T04:38:18.183Z,12.07
2018-07-23T04:40:46.590Z,11.95
2018-07-23T04:43:14.931Z,11.25
2018-07-23T04:45:43.292Z,11.43
2018-07-23T04:48:11.633Z,10.85
2018-07-23T04:50:40.310Z,10.98
2018-07-23T04:53:08.614Z,10.63
2018-07-23T04:55:36.948Z,9.98
2018-07-23T04:58:05.367Z,9.80
2018-07-23T05:00:33.709Z,10.15
2018-07-23T05:03:02.030Z,10.80
2018-07-23T05:05:30.349Z,9.70
2018-07-23T05:07:58.693Z,10.85
2018-07-23T05:10:27.044Z,10.20
2018-07-23T05:12:55.505Z,10.33
2018-07-23T05:15:23.876Z,10.33
2018-07-23T05:17:52.217Z,10.95
2018-07-23T05:20:20.530Z,10.50
2018-07-23T05:22:48.828Z,10.80
2018-07-23T05:25:17.149Z,10.50
2018-07-23T05:27:45.519Z,11.48
2018-07-23T05:30:13.901Z,10.60
2018-07-23T05:32:42.259Z,10.40
2018-07-23T05:35:10.651Z,10.53
2018-07-23T05:37:39.010Z,10.70
2018-07-23T05:40:07.569Z,40.95
2018-07-23T05:42:35.870Z,12.03
2018-07-23T05:45:04.669Z,12.82
2018-07-23T05:47:33.019Z,11.65
2018-07-23T05:50:01.414Z,9.78
2018-07-23T05:52:29.730Z,9.10
2018-07-23T05:54:58.168Z,10.10
2018-07-23T05:57:26.524Z,9.95
2018-07-23T05:59:54.896Z,9.70
2018-07-23T06:02:23.267Z,10.00
2018-07-23T06:04:51.811Z,10.65
2018-07-23T06:07:20.184Z,10.53
2018-07-23T06:09:48.528Z,10.70
2018-07-23T06:12:16.935Z,10.40
2018-07-23T06:14:45.330Z,11.20
2018-07-23T06:17:13.719Z,10.85
2018-07-23T06:19:42.054Z,10.15
2018-07-23T06:22:10.451Z,10.50
2018-07-23T06:24:38.804Z,10.48
2018-07-23T06:27:07.147Z,10.70
2018-07-23T06:29:35.530Z,10.10
2018-07-23T06:32:03.880Z,9.70
2018-07-23T06:34:32.248Z,9.98
2018-07-23T06:37:00.620Z,10.23
2018-07-23T06:39:29.009Z,9.90
2018-07-23T06:41:57.373Z,9.27
2018-07-23T06:44:25.734Z,8.20
2018-07-23T06:46:54.077Z,8.33
2018-07-23T06:49:22.537Z,9.10
2018-07-23T06:51:50.865Z,9.50
2018-07-23T06:54:19.307Z,8.98
2018-07-23T06:56:47.629Z,9.40
2018-07-23T06:59:15.944Z,9.25
2018-07-23T07:01:44.311Z,10.93
2018-07-23T07:04:12.766Z,9.20
2018-07-23T07:06:41.115Z,10.70
2018-07-23T07:09:10.455Z,10.38
2018-07-23T07:11:39.058Z,9.35
2018-07-23T07:14:07.962Z,8.98
2018-07-23T07:16:36.344Z,9.68
2018-07-23T07:19:04.683Z,9.80
2018-07-23T07:21:32.999Z,9.48
2018-07-23T07:24:01.337Z,8.70
2018-07-23T07:26:29.655Z,8.48
2018-07-23T07:28:58.093Z,8.45
2018-07-23T07:31:26.526Z,6.55
2018-07-23T07:33:54.876Z,5.97
2018-07-23T07:36:23.229Z,5.90
2018-07-23T07:38:51.599Z,7.15
2018-07-23T07:41:19.960Z,5.50
2018-07-23T07:43:48.304Z,5.03
2018-07-23T07:46:16.724Z,4.70
2018-07-23T07:48:45.084Z,5.12
2018-07-23T07:51:13.461Z,4.20
2018-07-23T07:53:41.928Z,4.20
2018-07-23T07:56:10.314Z,5.30
2018-07-23T07:58:38.644Z,4.40
2018-07-23T08:01:07.050Z,5.00
2018-07-23T08:03:35.409Z,4.87
2018-07-23T08:06:03.799Z,5.60
2018-07-23T08:08:32.226Z,5.30
2018-07-23T08:11:00.585Z,4.80
2018-07-23T08:13:29.059Z,5.40
2018-07-23T08:15:57.433Z,5.05
2018-07-23T08:18:25.753Z,4.60
2018-07-23T08:20:54.115Z,5.42
2018-07-23T08:23:22.493Z,4.83
2018-07-23T08:25:50.924Z,5.40
2018-07-23T08:28:19.255Z,5.40
2018-07-23T08:30:47.574Z,5.40
2018-07-23T08:33:15.991Z,4.55
2018-07-23T08:35:44.357Z,4.70
2018-07-23T08:38:12.735Z,4.95
2018-07-23T08:40:41.113Z,4.80
2018-07-23T08:43:09.513Z,4.70
2018-07-23T08:45:37.895Z,5.30
2018-07-23T08:48:06.265Z,5.10
2018-07-23T08:50:34.835Z,4.50
2018-07-23T08:53:03.173Z,4.90
2018-07-23T08:55:31.509Z,4.90
2018-07-23T08:57:59.838Z,4.60
2018-07-23T09:00:28.312Z,4.83
2018-07-23T09:02:56.668Z,4.40
2018-07-23T09:05:25.079Z,4.72
2018-07-23T09:07:53.408Z,4.80
2018-07-23T09:10:21.752Z,4.78
2018-07-23T09:12:50.176Z,4.47
2018-07-23T09:15:18.559Z,5.42
2018-07-23T09:17:46.900Z,8.10
2018-07-23T09:20:15.265Z,5.45
2018-07-23T09:22:43.636Z,5.33
2018-07-23T09:25:12.031Z,5.08
2018-07-23T09:27:40.418Z,8.60
2018-07-23T09:31:11.959Z,7.07
2018-07-23T09:33:40.846Z,6.12
2018-07-23T09:36:09.572Z,5.65
2018-07-23T09:38:37.925Z,6.45
2018-07-23T09:41:06.559Z,5.62
2018-07-23T09:43:34.931Z,5.60
2018-07-23T09:46:03.293Z,5.28
2018-07-23T09:48:31.667Z,5.22
2018-07-23T09:51:00.052Z,5.30
2018-07-23T09:53:28.401Z,5.92
2018-07-23T09:55:56.724Z,4.87
2018-07-23T09:58:25.051Z,4.42
2018-07-23T10:01:01.591Z,5.78
2018-07-23T10:03:29.931Z,5.50
2018-07-23T10:05:58.289Z,5.78
2018-07-23T10:08:26.636Z,6.22
2018-07-23T10:10:54.987Z,5.70
2018-07-23T10:13:23.332Z,5.45
2018-07-23T10:15:51.686Z,5.90
2018-07-23T10:18:20.014Z,4.83
2018-07-23T10:20:48.370Z,5.40
2018-07-23T10:23:16.710Z,5.20
2018-07-23T10:25:45.061Z,5.75
2018-07-23T10:28:13.403Z,5.00
2018-07-23T10:30:41.876Z,6.30
2018-07-23T10:33:10.223Z,5.80
2018-07-23T10:35:38.676Z,5.35
2018-07-23T10:38:07.075Z,5.33
2018-07-23T10:40:35.432Z,6.80
2018-07-23T10:43:03.821Z,6.12
2018-07-23T10:45:32.159Z,5.50
2018-07-23T10:48:00.449Z,5.97
2018-07-23T10:50:28.827Z,6.15
2018-07-23T10:52:57.132Z,6.35
2018-07-23T10:55:25.475Z,5.58
2018-07-23T10:57:53.960Z,5.73
2018-07-23T11:00:22.300Z,5.13
2018-07-23T11:02:50.620Z,5.43
2018-07-23T11:05:19.011Z,5.72
2018-07-23T11:07:47.340Z,5.50
2018-07-23T11:10:15.756Z,5.80
2018-07-23T11:12:44.177Z,5.55
2018-07-23T11:15:12.539Z,5.90
2018-07-23T11:17:40.849Z,6.87
2018-07-23T11:20:11.401Z,5.80
2018-07-23T11:22:40.040Z,5.40
2018-07-23T11:25:38.504Z,5.10
2018-07-23T11:27:36.797Z,6.30
2018-07-23T11:30:05.658Z,5.97
2018-07-23T11:32:34.497Z,6.78
2018-07-23T11:35:02.830Z,6.30
2018-07-23T11:37:31.329Z,6.05
2018-07-23T11:39:59.644Z,5.67
2018-07-23T11:42:28.045Z,6.08
2018-07-23T11:44:56.392Z,7.47
2018-07-23T11:47:25.018Z,6.12
2018-07-23T11:49:53.434Z,5.55
2018-07-23T11:52:21.800Z,5.70
2018-07-23T11:54:50.152Z,5.03
2018-07-23T11:57:18.472Z,5.07
2018-07-23T11:59:46.923Z,4.95
2018-07-23T12:02:15.252Z,4.15
2018-07-23T12:04:43.776Z,4.40
2018-07-23T12:07:11.938Z,4.30
2018-07-23T12:09:40.257Z,4.50
2018-07-23T12:12:08.618Z,17.53
2018-07-23T12:14:37.077Z,6.67
2018-07-23T12:17:05.745Z,5.20
2018-07-23T12:19:34.105Z,4.90
2018-07-23T12:22:02.536Z,5.90
2018-07-23T12:24:30.992Z,3.50
2018-07-23T12:26:59.416Z,3.70
2018-07-23T12:29:28.470Z,3.30
2018-07-23T12:31:56.828Z,3.75
2018-07-23T12:34:25.114Z,3.77
2018-07-23T12:36:53.450Z,3.70
2018-07-23T12:39:21.950Z,3.60
2018-07-23T12:41:50.256Z,3.70
2018-07-23T12:44:18.606Z,4.42
2018-07-23T12:46:47.001Z,4.00
2018-07-23T12:49:15.315Z,3.70
2018-07-23T12:51:46.501Z,3.33
2018-07-23T12:54:14.804Z,3.20
2018-07-23T12:56:43.226Z,3.70
2018-07-23T12:59:11.794Z,3.60
2018-07-23T13:01:40.249Z,4.10
2018-07-23T13:04:08.557Z,3.60
2018-07-23T13:06:37.020Z,3.25
2018-07-23T13:09:08.667Z,3.52
2018-07-23T13:11:37.120Z,3.75
2018-07-23T13:14:05.494Z,4.30
2018-07-23T13:16:33.877Z,3.92
2018-07-23T13:19:02.442Z,5.20
2018-07-23T13:21:30.903Z,4.20
2018-07-23T13:23:59.217Z,4.67
2018-07-23T13:26:27.602Z,3.62
2018-07-23T13:28:55.956Z,3.10
2018-07-23T13:31:24.496Z,3.90
2018-07-23T13:33:52.867Z,3.17
2018-07-23T13:36:21.275Z,5.10
2018-07-23T13:38:49.748Z,5.67
2018-07-23T13:41:18.112Z,5.58
2018-07-23T13:43:46.485Z,4.00
2018-07-23T13:46:14.837Z,3.90
2018-07-23T13:48:43.174Z,3.40
2018-07-23T13:51:11.558Z,3.60
2018-07-23T13:53:39.968Z,3.70
2018-07-23T13:56:08.361Z,3.70
2018-07-23T13:58:36.692Z,3.95
2018-07-23T14:01:05.061Z,4.20
2018-07-23T14:03:33.387Z,3.75
2018-07-23T14:06:01.898Z,4.30
2018-07-23T14:08:30.335Z,3.77
2018-07-23T14:10:58.710Z,4.10
2018-07-23T14:13:27.107Z,4.10
2018-07-23T14:15:55.632Z,3.80
2018-07-23T14:18:24.014Z,4.10
2018-07-23T14:20:52.475Z,3.85
2018-07-23T14:23:21.402Z,4.40
2018-07-23T14:25:49.748Z,4.40
2018-07-23T14:28:18.158Z,3.65
2018-07-23T14:30:46.517Z,3.77
2018-07-23T14:33:16.061Z,3.80
2018-07-23T14:35:46.701Z,3.80
2018-07-23T14:38:15.166Z,3.90
2018-07-23T14:40:46.418Z,3.80
2018-07-23T14:43:19.937Z,3.70
2018-07-23T14:45:48.498Z,3.42
2018-07-23T14:48:17.148Z,3.55
2018-07-23T14:50:45.706Z,3.60
2018-07-23T14:53:14.074Z,3.50
2018-07-23T14:55:42.576Z,4.00
2018-07-23T14:58:10.886Z,4.05
2018-07-23T15:00:39.284Z,3.52
2018-07-23T15:03:07.856Z,4.10
2018-07-23T15:05:36.224Z,4.00
2018-07-23T15:08:04.723Z,4.10
2018-07-23T15:10:33.124Z,3.47
2018-07-23T15:13:01.457Z,3.60
2018-07-23T15:15:29.803Z,4.10
2018-07-23T15:17:58.138Z,4.70
2018-07-23T15:20:26.487Z,3.92
2018-07-23T15:22:55.001Z,3.30
2018-07-23T15:25:23.315Z,3.70
2018-07-23T15:27:51.689Z,3.62
2018-07-23T15:30:20.404Z,3.30
2018-07-23T15:32:48.716Z,3.40
2018-07-23T15:35:17.944Z,3.30
2018-07-23T15:37:46.263Z,3.67
2018-07-23T15:40:14.817Z,5.13
2018-07-23T15:42:43.172Z,4.53
2018-07-23T15:45:11.603Z,3.80
2018-07-23T15:47:40.428Z,4.20
2018-07-23T15:50:09.014Z,3.10
2018-07-23T15:52:37.722Z,3.35
2018-07-23T15:55:06.282Z,3.87
2018-07-23T15:57:34.878Z,3.70
2018-07-23T16:00:03.241Z,5.00
2018-07-23T16:02:31.981Z,3.55
2018-07-23T16:05:00.319Z,3.30
2018-07-23T16:07:28.785Z,3.67
2018-07-23T16:09:57.202Z,3.10
2018-07-23T16:12:25.547Z,3.40
2018-07-23T16:14:54.981Z,3.22
2018-07-23T16:17:23.303Z,3.60
2018-07-23T16:19:52.486Z,3.80
2018-07-23T16:22:21.084Z,3.30
2018-07-23T16:24:49.394Z,4.00
2018-07-23T16:27:17.840Z,3.80
2018-07-23T16:29:46.135Z,3.60
2018-07-23T16:32:14.494Z,4.00
2018-07-23T16:34:42.823Z,3.30
2018-07-23T16:37:11.186Z,3.50
2018-07-23T16:39:39.488Z,3.50
2018-07-23T16:42:07.877Z,3.47
2018-07-23T16:44:36.239Z,3.30
2018-07-23T16:47:04.640Z,3.65
2018-07-23T16:49:32.948Z,3.27
2018-07-23T16:52:01.221Z,3.50
2018-07-23T16:54:29.928Z,3.70
2018-07-23T16:56:58.266Z,3.20
2018-07-23T16:59:26.634Z,4.53
2018-07-23T17:01:54.938Z,4.30
2018-07-23T17:04:23.274Z,3.40
2018-07-23T17:06:51.601Z,3.60
2018-07-23T17:09:20.012Z,3.55
2018-07-23T17:11:48.328Z,3.72
2018-07-23T17:14:16.703Z,3.57
2018-07-23T17:16:45.059Z,4.03
2018-07-23T17:19:13.391Z,3.47
2018-07-23T17:21:41.756Z,3.30
2018-07-23T17:24:10.128Z,3.60
2018-07-23T17:26:38.458Z,3.10
2018-07-23T17:29:06.924Z,3.10
2018-07-23T17:31:35.231Z,3.30
2018-07-23T17:34:03.560Z,3.40
2018-07-23T17:36:31.900Z,3.30
2018-07-23T17:39:00.266Z,3.58
2018-07-23T17:41:28.608Z,3.67
2018-07-23T17:43:56.941Z,3.37
2018-07-23T17:46:25.253Z,2.90
2018-07-23T17:48:53.580Z,3.20
2018-07-23T17:51:21.895Z,3.10
2018-07-23T17:53:50.532Z,3.40
2018-07-23T17:56:18.861Z,3.50
2018-07-23T17:58:47.176Z,3.02
2018-07-23T18:01:15.572Z,3.10
2018-07-23T18:03:43.856Z,3.37
2018-07-23T18:06:12.160Z,2.85
2018-07-23T18:08:40.467Z,3.10
2018-07-23T18:11:08.879Z,3.45
2018-07-23T18:13:37.187Z,2.98
2018-07-23T18:16:05.522Z,3.12
2018-07-23T18:18:33.853Z,3.43
2018-07-23T18:21:02.314Z,3.40
2018-07-23T18:23:31.242Z,3.10
2018-07-23T18:26:00.022Z,3.05
2018-07-23T18:28:28.530Z,3.12
2018-07-23T18:30:56.886Z,3.00
2018-07-23T18:33:25.221Z,3.40
2018-07-23T18:35:53.533Z,3.30
2018-07-23T18:38:21.950Z,3.20
2018-07-23T18:40:50.309Z,3.35
2018-07-23T18:43:18.631Z,3.20
2018-07-23T18:45:46.961Z,4.00
2018-07-23T18:49:32.112Z,3.08
2018-07-23T18:52:00.421Z,4.70
2018-07-23T18:54:29.946Z,3.40
2018-07-23T18:56:59.564Z,3.27
2018-07-23T18:59:27.931Z,2.95
2018-07-23T19:01:57.034Z,3.17
2018-07-23T19:04:25.418Z,3.47
2018-07-23T19:06:53.749Z,3.60
2018-07-23T19:09:23.573Z,3.72
2018-07-23T19:11:53.012Z,3.50
2018-07-23T19:14:21.563Z,3.30
2018-07-23T19:16:50.910Z,4.25
2018-07-23T19:19:19.200Z,3.50
2018-07-23T19:21:47.525Z,3.60
2018-07-23T19:24:15.891Z,5.17
2018-07-23T19:26:44.260Z,5.05
2018-07-23T19:29:12.579Z,5.85
2018-07-23T19:31:40.989Z,7.55
2018-07-23T19:34:09.366Z,4.05
2018-07-23T19:36:37.750Z,6.20
2018-07-23T19:39:09.706Z,6.00
2018-07-23T19:41:38.610Z,7.53
2018-07-23T19:44:07.776Z,4.83
2018-07-23T19:46:36.113Z,14.23
2018-07-23T19:49:04.637Z,11.75
2018-07-23T19:51:33.131Z,13.63
2018-07-23T19:54:01.507Z,11.00
2018-07-23T19:56:29.820Z,9.40
2018-07-23T19:58:58.218Z,5.83
2018-07-23T20:01:26.599Z,4.80
2018-07-23T20:03:54.896Z,3.90
2018-07-23T20:06:24.604Z,3.90
2018-07-23T20:08:53.941Z,3.92
2018-07-23T20:11:23.009Z,4.20
2018-07-23T20:13:51.537Z,4.12
2018-07-23T20:16:20.040Z,4.55
2018-07-23T20:18:48.404Z,4.50
2018-07-23T20:21:16.835Z,4.92
2018-07-23T20:23:45.442Z,5.10
2018-07-23T20:26:13.860Z,4.47
2018-07-23T20:28:42.627Z,4.97
2018-07-23T20:31:10.928Z,4.20
2018-07-23T20:33:39.285Z,4.25
2018-07-23T20:36:07.667Z,4.53
2018-07-23T20:38:36.461Z,4.75
2018-07-23T20:41:04.847Z,4.65
2018-07-23T20:43:33.882Z,5.60
2018-07-23T20:46:02.521Z,5.10
2018-07-23T20:48:30.847Z,4.83
2018-07-23T20:50:59.207Z,5.40
2018-07-23T20:53:27.614Z,4.75
2018-07-23T20:55:55.928Z,5.20
2018-07-23T20:58:24.515Z,5.10
2018-07-23T21:00:52.869Z,5.23
2018-07-23T21:03:21.278Z,4.80
2018-07-23T21:05:49.599Z,4.80
2018-07-23T21:08:18.015Z,4.60
2018-07-23T21:10:46.357Z,5.03
2018-07-23T21:13:14.687Z,4.70
2018-07-23T21:15:43.032Z,4.70
2018-07-23T21:18:11.364Z,6.40
2018-07-23T21:20:39.668Z,6.40
2018-07-23T21:23:08.149Z,5.40
2018-07-23T21:25:36.619Z,4.95
2018-07-23T21:28:05.017Z,4.60
2018-07-23T21:30:33.433Z,4.33
2018-07-23T21:33:02.057Z,4.60
2018-07-23T21:35:30.432Z,4.30
2018-07-23T21:37:58.816Z,4.10
2018-07-23T21:40:27.164Z,4.50
2018-07-23T21:42:55.464Z,4.27
2018-07-23T21:45:23.814Z,4.17
2018-07-23T21:47:52.286Z,4.30
2018-07-23T21:50:20.610Z,4.62
2018-07-23T21:52:48.930Z,4.17
2018-07-23T21:55:17.338Z,4.45
2018-07-23T21:57:45.783Z,4.90
2018-07-23T22:00:15.456Z,4.85
2018-07-23T22:02:43.795Z,4.70
2018-07-23T22:05:12.163Z,3.90
2018-07-23T22:07:40.919Z,4.35
2018-07-23T22:10:10.276Z,4.20
2018-07-23T22:12:38.634Z,3.95
2018-07-23T22:15:09.220Z,4.35
2018-07-23T22:17:37.837Z,3.85
2018-07-23T22:20:06.601Z,4.03
2018-07-23T22:22:34.955Z,4.30
2018-07-23T22:25:03.462Z,4.40
2018-07-23T22:27:31.934Z,5.08
2018-07-23T22:30:00.340Z,4.22
2018-07-23T22:32:28.684Z,4.10
2018-07-23T22:34:57.005Z,4.55
2018-07-23T22:37:25.338Z,3.98
2018-07-23T22:39:53.732Z,4.20
2018-07-23T22:42:23.016Z,4.30
2018-07-23T22:44:52.088Z,4.30
2018-07-23T22:47:20.422Z,4.20
2018-07-23T22:49:48.986Z,4.35
2018-07-23T22:52:17.696Z,3.85
2018-07-23T22:54:46.021Z,4.00
2018-07-23T22:57:14.518Z,3.72
2018-07-23T22:59:42.936Z,4.35
2018-07-23T23:02:11.298Z,4.10
2018-07-23T23:04:39.614Z,3.85
2018-07-23T23:07:07.994Z,4.70
2018-07-23T23:09:36.555Z,4.08
2018-07-23T23:12:04.977Z,4.60
2018-07-23T23:14:33.533Z,4.00
2018-07-23T23:17:01.915Z,4.20
2018-07-23T23:19:30.548Z,4.10
2018-07-23T23:21:59.031Z,4.33
2018-07-23T23:24:27.366Z,4.50
2018-07-23T23:26:55.695Z,4.03
2018-07-23T23:29:24.089Z,4.47
2018-07-23T23:31:52.471Z,4.42
2018-07-23T23:34:20.829Z,4.20
2018-07-23T23:36:49.156Z,4.90
2018-07-23T23:39:17.522Z,4.30
2018-07-23T23:41:46.006Z,3.95
2018-07-23T23:44:14.354Z,4.42
2018-07-23T23:46:42.844Z,4.08
2018-07-23T23:49:11.148Z,4.30
2018-07-23T23:51:39.498Z,4.33
2018-07-23T23:54:08.110Z,4.20
2018-07-23T23:56:36.487Z,4.40
2018-07-23T23:59:04.841Z,4.67
